sensor_id;sensor_type;location;lat;lon;timestamp;P1;durP1;ratioP1;P2;durP2;ratioP2
28427;SDS011;15662;49.128;8.520;2023-04-27T00:01:54;4.05;;;3.42;;
28427;SDS011;15662;49.128;8.520;2023-04-27T00:04:23;6.22;;;3.60;;
28427;SDS011;15662;49.128;8.520;2023-04-27T00:06:51;4.53;;;3.55;;
28427;SDS011;15662;49.128;8.520;2023-04-27T00:09:19;5.78;;;3.53;;
28427;SDS011;15662;49.128;8.520;2023-04-27T00:11:47;6.00;;;3.75;;
28427;SDS011;15662;49.128;8.520;2023-04-27T00:14:15;4.80;;;3.20;;
28427;SDS011;15662;49.128;8.520;2023-04-27T00:16:43;7.10;;;3.90;;
28427;SDS011;15662;49.128;8.520;2023-04-27T00:19:11;3.95;;;3.47;;
28427;SDS011;15662;49.128;8.520;2023-04-27T00:21:40;6.03;;;3.65;;
28427;SDS011;15662;49.128;8.520;2023-04-27T00:24:08;4.75;;;3.38;;
28427;SDS011;15662;49.128;8.520;2023-04-27T00:26:35;4.97;;;3.60;;
28427;SDS011;15662;49.128;8.520;2023-04-27T00:29:03;4.85;;;3.28;;
28427;SDS011;15662;49.128;8.520;2023-04-27T00:31:31;4.75;;;3.33;;
28427;SDS011;15662;49.128;8.520;2023-04-27T00:33:59;5.32;;;3.45;;
28427;SDS011;15662;49.128;8.520;2023-04-27T00:36:27;5.57;;;3.42;;
28427;SDS011;15662;49.128;8.520;2023-04-27T00:38:54;10.00;;;4.10;;
28427;SDS011;15662;49.128;8.520;2023-04-27T00:41:23;4.85;;;3.17;;
28427;SDS011;15662;49.128;8.520;2023-04-27T00:43:51;6.75;;;3.58;;
28427;SDS011;15662;49.128;8.520;2023-04-27T00:46:20;6.25;;;3.20;;
28427;SDS011;15662;49.128;8.520;2023-04-27T00:48:47;4.20;;;3.33;;
28427;SDS011;15662;49.128;8.520;2023-04-27T00:51:15;3.38;;;2.78;;
28427;SDS011;15662;49.128;8.520;2023-04-27T00:53:43;4.03;;;2.75;;
28427;SDS011;15662;49.128;8.520;2023-04-27T00:56:11;3.83;;;2.92;;
28427;SDS011;15662;49.128;8.520;2023-04-27T00:58:39;8.15;;;4.03;;
28427;SDS011;15662;49.128;8.520;2023-04-27T01:01:08;9.68;;;3.60;;
28427;SDS011;15662;49.128;8.520;2023-04-27T01:03:36;4.45;;;2.92;;
28427;SDS011;15662;49.128;8.520;2023-04-27T01:06:05;4.88;;;2.72;;
28427;SDS011;15662;49.128;8.520;2023-04-27T01:08:34;5.97;;;3.10;;
28427;SDS011;15662;49.128;8.520;2023-04-27T01:11:02;4.68;;;2.85;;
28427;SDS011;15662;49.128;8.520;2023-04-27T01:13:30;6.82;;;3.35;;
28427;SDS011;15662;49.128;8.520;2023-04-27T01:15:58;4.93;;;3.15;;
28427;SDS011;15662;49.128;8.520;2023-04-27T01:18:26;6.35;;;3.60;;
28427;SDS011;15662;49.128;8.520;2023-04-27T01:20:56;3.83;;;3.00;;
28427;SDS011;15662;49.128;8.520;2023-04-27T01:23:24;3.22;;;2.92;;
28427;SDS011;15662;49.128;8.520;2023-04-27T01:25:52;4.45;;;3.15;;
28427;SDS011;15662;49.128;8.520;2023-04-27T01:28:20;4.18;;;3.10;;
28427;SDS011;15662;49.128;8.520;2023-04-27T01:30:48;4.10;;;3.00;;
28427;SDS011;15662;49.128;8.520;2023-04-27T01:33:16;5.55;;;2.75;;
28427;SDS011;15662;49.128;8.520;2023-04-27T01:35:47;10.93;;;3.37;;
28427;SDS011;15662;49.128;8.520;2023-04-27T01:38:15;3.55;;;3.22;;
28427;SDS011;15662;49.128;8.520;2023-04-27T01:40:43;4.45;;;3.30;;
28427;SDS011;15662;49.128;8.520;2023-04-27T01:43:12;6.60;;;2.90;;
28427;SDS011;15662;49.128;8.520;2023-04-27T01:45:40;4.78;;;2.75;;
28427;SDS011;15662;49.128;8.520;2023-04-27T01:48:07;6.15;;;2.80;;
28427;SDS011;15662;49.128;8.520;2023-04-27T01:50:35;4.05;;;2.83;;
28427;SDS011;15662;49.128;8.520;2023-04-27T01:53:05;7.63;;;2.65;;
28427;SDS011;15662;49.128;8.520;2023-04-27T01:55:33;3.92;;;2.78;;
28427;SDS011;15662;49.128;8.520;2023-04-27T01:58:04;8.13;;;3.47;;
28427;SDS011;15662;49.128;8.520;2023-04-27T02:00:32;6.78;;;3.70;;
28427;SDS011;15662;49.128;8.520;2023-04-27T02:03:00;6.22;;;3.53;;
28427;SDS011;15662;49.128;8.520;2023-04-27T02:05:28;7.82;;;4.22;;
28427;SDS011;15662;49.128;8.520;2023-04-27T02:08:13;11.63;;;7.07;;
28427;SDS011;15662;49.128;8.520;2023-04-27T02:10:41;10.10;;;5.63;;
28427;SDS011;15662;49.128;8.520;2023-04-27T02:13:09;10.18;;;4.10;;
28427;SDS011;15662;49.128;8.520;2023-04-27T02:15:37;7.15;;;3.65;;
28427;SDS011;15662;49.128;8.520;2023-04-27T02:18:05;6.22;;;3.00;;
28427;SDS011;15662;49.128;8.520;2023-04-27T02:20:33;3.38;;;2.80;;
28427;SDS011;15662;49.128;8.520;2023-04-27T02:23:00;7.20;;;3.30;;
28427;SDS011;15662;49.128;8.520;2023-04-27T02:25:46;5.95;;;2.83;;
28427;SDS011;15662;49.128;8.520;2023-04-27T02:28:31;5.85;;;2.90;;
28427;SDS011;15662;49.128;8.520;2023-04-27T02:30:59;5.90;;;2.55;;
28427;SDS011;15662;49.128;8.520;2023-04-27T02:33:27;4.63;;;2.72;;
28427;SDS011;15662;49.128;8.520;2023-04-27T02:35:56;5.78;;;2.67;;
28427;SDS011;15662;49.128;8.520;2023-04-27T02:38:24;3.42;;;2.53;;
28427;SDS011;15662;49.128;8.520;2023-04-27T02:40:52;4.82;;;2.40;;
28427;SDS011;15662;49.128;8.520;2023-04-27T02:43:21;2.88;;;2.30;;
28427;SDS011;15662;49.128;8.520;2023-04-27T02:45:48;4.20;;;2.65;;
28427;SDS011;15662;49.128;8.520;2023-04-27T02:48:16;3.90;;;2.30;;
28427;SDS011;15662;49.128;8.520;2023-04-27T02:50:44;3.55;;;2.25;;
28427;SDS011;15662;49.128;8.520;2023-04-27T02:53:12;3.45;;;2.50;;
28427;SDS011;15662;49.128;8.520;2023-04-27T02:55:44;6.25;;;3.00;;
28427;SDS011;15662;49.128;8.520;2023-04-27T02:58:16;4.82;;;2.80;;
28427;SDS011;15662;49.128;8.520;2023-04-27T03:00:44;6.93;;;3.22;;
28427;SDS011;15662;49.128;8.520;2023-04-27T03:03:14;6.55;;;3.40;;
28427;SDS011;15662;49.128;8.520;2023-04-27T03:05:42;4.88;;;3.35;;
28427;SDS011;15662;49.128;8.520;2023-04-27T03:08:10;8.13;;;3.88;;
28427;SDS011;15662;49.128;8.520;2023-04-27T03:10:38;4.47;;;3.25;;
28427;SDS011;15662;49.128;8.520;2023-04-27T03:13:13;7.25;;;3.50;;
28427;SDS011;15662;49.128;8.520;2023-04-27T03:15:43;6.03;;;3.00;;
28427;SDS011;15662;49.128;8.520;2023-04-27T03:18:11;6.68;;;3.35;;
28427;SDS011;15662;49.128;8.520;2023-04-27T03:20:40;6.03;;;3.10;;
28427;SDS011;15662;49.128;8.520;2023-04-27T03:23:07;3.28;;;2.40;;
28427;SDS011;15662;49.128;8.520;2023-04-27T03:25:35;4.97;;;2.63;;
28427;SDS011;15662;49.128;8.520;2023-04-27T03:28:03;6.32;;;2.88;;
28427;SDS011;15662;49.128;8.520;2023-04-27T03:30:31;10.43;;;2.80;;
28427;SDS011;15662;49.128;8.520;2023-04-27T03:36:05;5.25;;;2.22;;
28427;SDS011;15662;49.128;8.520;2023-04-27T03:39:11;4.15;;;2.70;;
28427;SDS011;15662;49.128;8.520;2023-04-27T03:52:48;4.97;;;2.58;;
28427;SDS011;15662;49.128;8.520;2023-04-27T04:04:54;2.83;;;2.17;;
28427;SDS011;15662;49.128;8.520;2023-04-27T04:11:42;5.45;;;2.30;;
28427;SDS011;15662;49.128;8.520;2023-04-27T04:14:47;3.50;;;2.20;;
28427;SDS011;15662;49.128;8.520;2023-04-27T04:24:42;3.55;;;2.40;;
28427;SDS011;15662;49.128;8.520;2023-04-27T04:27:47;6.72;;;2.88;;
28427;SDS011;15662;49.128;8.520;2023-04-27T04:31:11;10.20;;;2.88;;
28427;SDS011;15662;49.128;8.520;2023-04-27T04:37:59;37.22;;;16.15;;
28427;SDS011;15662;49.128;8.520;2023-04-27T04:40:46;15.98;;;7.40;;
28427;SDS011;15662;49.128;8.520;2023-04-27T04:43:51;9.00;;;5.32;;
28427;SDS011;15662;49.128;8.520;2023-04-27T04:49:25;7.57;;;3.28;;
28427;SDS011;15662;49.128;8.520;2023-04-27T04:55:55;5.00;;;2.78;;
28427;SDS011;15662;49.128;8.520;2023-04-27T04:59:19;4.65;;;2.85;;
28427;SDS011;15662;49.128;8.520;2023-04-27T05:02:42;3.35;;;2.55;;
28427;SDS011;15662;49.128;8.520;2023-04-27T05:09:12;6.65;;;3.90;;
28427;SDS011;15662;49.128;8.520;2023-04-27T05:12:36;4.18;;;2.72;;
28427;SDS011;15662;49.128;8.520;2023-04-27T05:22:09;4.57;;;2.72;;
28427;SDS011;15662;49.128;8.520;2023-04-27T05:25:14;5.53;;;2.75;;
28427;SDS011;15662;49.128;8.520;2023-04-27T05:27:42;6.22;;;3.35;;
28427;SDS011;15662;49.128;8.520;2023-04-27T05:34:11;4.18;;;2.70;;
28427;SDS011;15662;49.128;8.520;2023-04-27T05:36:57;5.25;;;2.85;;
28427;SDS011;15662;49.128;8.520;2023-04-27T05:43:25;4.65;;;2.70;;
28427;SDS011;15662;49.128;8.520;2023-04-27T05:45:53;5.88;;;3.38;;
28427;SDS011;15662;49.128;8.520;2023-04-27T05:48:21;6.50;;;2.60;;
28427;SDS011;15662;49.128;8.520;2023-04-27T05:51:07;4.80;;;2.90;;
28427;SDS011;15662;49.128;8.520;2023-04-27T06:01:19;8.35;;;3.58;;
28427;SDS011;15662;49.128;8.520;2023-04-27T06:04:25;8.60;;;4.43;;
28427;SDS011;15662;49.128;8.520;2023-04-27T06:18:01;3.90;;;2.40;;
28427;SDS011;15662;49.128;8.520;2023-04-27T06:20:47;4.22;;;2.60;;
28427;SDS011;15662;49.128;8.520;2023-04-27T06:30:41;5.60;;;2.70;;
28427;SDS011;15662;49.128;8.520;2023-04-27T06:40:34;4.43;;;2.70;;
28427;SDS011;15662;49.128;8.520;2023-04-27T06:46:26;4.28;;;2.42;;
28427;SDS011;15662;49.128;8.520;2023-04-27T06:49:49;5.38;;;2.60;;
28427;SDS011;15662;49.128;8.520;2023-04-27T06:56:21;6.20;;;2.75;;
28427;SDS011;15662;49.128;8.520;2023-04-27T06:59:26;4.63;;;2.58;;
28427;SDS011;15662;49.128;8.520;2023-04-27T07:02:31;4.45;;;2.72;;
28427;SDS011;15662;49.128;8.520;2023-04-27T07:05:36;7.20;;;3.03;;
28427;SDS011;15662;49.128;8.520;2023-04-27T07:11:54;5.72;;;3.25;;
28427;SDS011;15662;49.128;8.520;2023-04-27T07:26:15;7.20;;;3.17;;
28427;SDS011;15662;49.128;8.520;2023-04-27T07:29:39;5.47;;;3.30;;
28427;SDS011;15662;49.128;8.520;2023-04-27T07:32:45;4.88;;;3.50;;
28427;SDS011;15662;49.128;8.520;2023-04-27T07:35:33;5.30;;;3.72;;
28427;SDS011;15662;49.128;8.520;2023-04-27T07:48:39;6.55;;;3.40;;
28427;SDS011;15662;49.128;8.520;2023-04-27T07:51:46;4.40;;;2.95;;
28427;SDS011;15662;49.128;8.520;2023-04-27T07:54:52;6.25;;;3.35;;
28427;SDS011;15662;49.128;8.520;2023-04-27T07:58:17;5.78;;;3.60;;
28427;SDS011;15662;49.128;8.520;2023-04-27T08:18:30;5.22;;;2.80;;
28427;SDS011;15662;49.128;8.520;2023-04-27T08:24:24;3.45;;;2.58;;
28427;SDS011;15662;49.128;8.520;2023-04-27T08:41:49;4.55;;;2.58;;
28427;SDS011;15662;49.128;8.520;2023-04-27T08:45:13;6.28;;;2.60;;
28427;SDS011;15662;49.128;8.520;2023-04-27T08:52:03;2.45;;;2.25;;
28427;SDS011;15662;49.128;8.520;2023-04-27T08:55:33;2.10;;;1.95;;
28427;SDS011;15662;49.128;8.520;2023-04-27T09:05:16;4.47;;;2.83;;
28427;SDS011;15662;49.128;8.520;2023-04-27T09:08:41;10.00;;;4.82;;
28427;SDS011;15662;49.128;8.520;2023-04-27T09:11:48;4.53;;;3.10;;
28427;SDS011;15662;49.128;8.520;2023-04-27T09:18:22;2.88;;;2.58;;
28427;SDS011;15662;49.128;8.520;2023-04-27T09:24:59;6.50;;;2.65;;
28427;SDS011;15662;49.128;8.520;2023-04-27T09:35:04;5.40;;;3.13;;
28427;SDS011;15662;49.128;8.520;2023-04-27T10:07:41;5.25;;;2.78;;
28427;SDS011;15662;49.128;8.520;2023-04-27T10:10:47;6.22;;;3.15;;
28427;SDS011;15662;49.128;8.520;2023-04-27T10:17:37;4.95;;;3.10;;
28427;SDS011;15662;49.128;8.520;2023-04-27T10:23:51;5.82;;;3.15;;
28427;SDS011;15662;49.128;8.520;2023-04-27T10:29:49;4.63;;;2.90;;
28427;SDS011;15662;49.128;8.520;2023-04-27T10:36:20;2.80;;;2.47;;
28427;SDS011;15662;49.128;8.520;2023-04-27T10:52:51;2.95;;;2.20;;
28427;SDS011;15662;49.128;8.520;2023-04-27T10:59:51;3.92;;;2.45;;
28427;SDS011;15662;49.128;8.520;2023-04-27T11:02:43;3.08;;;2.25;;
28427;SDS011;15662;49.128;8.520;2023-04-27T11:06:08;4.60;;;2.30;;
28427;SDS011;15662;49.128;8.520;2023-04-27T11:15:09;4.40;;;2.78;;
28427;SDS011;15662;49.128;8.520;2023-04-27T11:18:35;3.10;;;2.05;;
28427;SDS011;15662;49.128;8.520;2023-04-27T11:22:03;2.78;;;2.03;;
28427;SDS011;15662;49.128;8.520;2023-04-27T11:54:57;2.65;;;1.98;;
28427;SDS011;15662;49.128;8.520;2023-04-27T11:58:41;3.47;;;2.10;;
28427;SDS011;15662;49.128;8.520;2023-04-27T12:05:49;3.28;;;1.67;;
28427;SDS011;15662;49.128;8.520;2023-04-27T12:08:59;4.43;;;2.03;;
28427;SDS011;15662;49.128;8.520;2023-04-27T12:12:04;4.97;;;3.10;;
28427;SDS011;15662;49.128;8.520;2023-04-27T12:25:25;3.33;;;1.90;;
28427;SDS011;15662;49.128;8.520;2023-04-27T12:31:55;3.25;;;1.48;;
28427;SDS011;15662;49.128;8.520;2023-04-27T12:34:25;3.05;;;1.75;;
28427;SDS011;15662;49.128;8.520;2023-04-27T12:37:33;3.80;;;1.60;;
28427;SDS011;15662;49.128;8.520;2023-04-27T12:40:39;2.17;;;1.70;;
28427;SDS011;15662;49.128;8.520;2023-04-27T12:51:36;2.63;;;1.60;;
28427;SDS011;15662;49.128;8.520;2023-04-27T12:58:19;1.55;;;1.13;;
28427;SDS011;15662;49.128;8.520;2023-04-27T13:01:17;1.83;;;1.27;;
28427;SDS011;15662;49.128;8.520;2023-04-27T13:10:20;2.55;;;1.42;;
28427;SDS011;15662;49.128;8.520;2023-04-27T13:20:53;2.28;;;1.48;;
28427;SDS011;15662;49.128;8.520;2023-04-27T13:23:59;3.17;;;1.35;;
28427;SDS011;15662;49.128;8.520;2023-04-27T13:27:07;2.10;;;1.70;;
28427;SDS011;15662;49.128;8.520;2023-04-27T13:29:55;2.28;;;1.65;;
28427;SDS011;15662;49.128;8.520;2023-04-27T13:40:30;3.83;;;2.25;;
28427;SDS011;15662;49.128;8.520;2023-04-27T13:47:40;1.87;;;1.40;;
28427;SDS011;15662;49.128;8.520;2023-04-27T13:54:28;6.60;;;3.75;;
28427;SDS011;15662;49.128;8.520;2023-04-27T13:57:38;3.30;;;1.70;;
28427;SDS011;15662;49.128;8.520;2023-04-27T14:00:42;4.05;;;1.50;;
28427;SDS011;15662;49.128;8.520;2023-04-27T14:04:07;1.08;;;0.90;;
28427;SDS011;15662;49.128;8.520;2023-04-27T14:13:06;3.80;;;1.10;;
28427;SDS011;15662;49.128;8.520;2023-04-27T14:23:20;1.33;;;0.95;;
28427;SDS011;15662;49.128;8.520;2023-04-27T14:26:48;2.47;;;1.00;;
28427;SDS011;15662;49.128;8.520;2023-04-27T14:33:00;2.90;;;1.60;;
28427;SDS011;15662;49.128;8.520;2023-04-27T14:36:05;1.45;;;1.17;;
28427;SDS011;15662;49.128;8.520;2023-04-27T14:42:36;1.60;;;1.00;;
28427;SDS011;15662;49.128;8.520;2023-04-27T14:49:46;1.30;;;1.15;;
28427;SDS011;15662;49.128;8.520;2023-04-27T14:52:52;1.40;;;1.10;;
28427;SDS011;15662;49.128;8.520;2023-04-27T14:55:57;1.58;;;1.10;;
28427;SDS011;15662;49.128;8.520;2023-04-27T15:20:27;2.92;;;1.05;;
28427;SDS011;15662;49.128;8.520;2023-04-27T15:33:51;1.67;;;0.95;;
28427;SDS011;15662;49.128;8.520;2023-04-27T15:36:38;1.38;;;0.90;;
28427;SDS011;15662;49.128;8.520;2023-04-27T15:39:27;1.10;;;1.02;;
28427;SDS011;15662;49.128;8.520;2023-04-27T15:42:47;1.70;;;1.05;;
28427;SDS011;15662;49.128;8.520;2023-04-27T15:45:18;1.95;;;1.20;;
28427;SDS011;15662;49.128;8.520;2023-04-27T15:50:39;1.98;;;1.10;;
28427;SDS011;15662;49.128;8.520;2023-04-27T15:53:34;2.17;;;1.02;;
28427;SDS011;15662;49.128;8.520;2023-04-27T15:56:05;0.90;;;0.90;;
28427;SDS011;15662;49.128;8.520;2023-04-27T15:58:35;1.05;;;1.05;;
28427;SDS011;15662;49.128;8.520;2023-04-27T16:01:03;2.53;;;0.98;;
28427;SDS011;15662;49.128;8.520;2023-04-27T16:03:32;1.17;;;0.85;;
28427;SDS011;15662;49.128;8.520;2023-04-27T16:06:03;0.93;;;0.90;;
28427;SDS011;15662;49.128;8.520;2023-04-27T16:08:38;2.63;;;1.00;;
28427;SDS011;15662;49.128;8.520;2023-04-27T16:11:06;1.00;;;0.90;;
28427;SDS011;15662;49.128;8.520;2023-04-27T16:13:39;1.17;;;1.08;;
28427;SDS011;15662;49.128;8.520;2023-04-27T16:16:07;1.40;;;1.10;;
28427;SDS011;15662;49.128;8.520;2023-04-27T16:18:35;1.20;;;0.95;;
28427;SDS011;15662;49.128;8.520;2023-04-27T16:21:04;1.00;;;0.88;;
28427;SDS011;15662;49.128;8.520;2023-04-27T16:23:33;2.17;;;0.93;;
28427;SDS011;15662;49.128;8.520;2023-04-27T16:26:01;1.50;;;0.98;;
28427;SDS011;15662;49.128;8.520;2023-04-27T16:28:29;1.45;;;1.08;;
28427;SDS011;15662;49.128;8.520;2023-04-27T16:30:58;0.88;;;0.88;;
28427;SDS011;15662;49.128;8.520;2023-04-27T16:33:26;1.77;;;0.95;;
28427;SDS011;15662;49.128;8.520;2023-04-27T16:35:53;1.75;;;1.20;;
28427;SDS011;15662;49.128;8.520;2023-04-27T16:38:27;1.55;;;0.98;;
28427;SDS011;15662;49.128;8.520;2023-04-27T16:41:06;2.25;;;0.93;;
28427;SDS011;15662;49.128;8.520;2023-04-27T16:43:34;1.00;;;0.90;;
28427;SDS011;15662;49.128;8.520;2023-04-27T16:46:04;1.15;;;0.90;;
28427;SDS011;15662;49.128;8.520;2023-04-27T16:48:35;1.00;;;0.77;;
28427;SDS011;15662;49.128;8.520;2023-04-27T16:51:06;1.20;;;1.10;;
28427;SDS011;15662;49.128;8.520;2023-04-27T16:53:35;2.67;;;1.38;;
28427;SDS011;15662;49.128;8.520;2023-04-27T16:56:04;2.30;;;1.17;;
28427;SDS011;15662;49.128;8.520;2023-04-27T16:58:33;1.73;;;1.00;;
28427;SDS011;15662;49.128;8.520;2023-04-27T17:01:02;6.05;;;1.00;;
28427;SDS011;15662;49.128;8.520;2023-04-27T17:03:32;1.80;;;1.25;;
28427;SDS011;15662;49.128;8.520;2023-04-27T17:06:02;1.05;;;0.98;;
28427;SDS011;15662;49.128;8.520;2023-04-27T17:08:30;1.23;;;0.90;;
28427;SDS011;15662;49.128;8.520;2023-04-27T17:11:00;1.73;;;1.02;;
28427;SDS011;15662;49.128;8.520;2023-04-27T17:13:28;1.90;;;1.30;;
28427;SDS011;15662;49.128;8.520;2023-04-27T17:15:58;1.73;;;1.17;;
28427;SDS011;15662;49.128;8.520;2023-04-27T17:18:27;2.25;;;1.10;;
28427;SDS011;15662;49.128;8.520;2023-04-27T17:20:56;2.30;;;0.98;;
28427;SDS011;15662;49.128;8.520;2023-04-27T17:23:23;1.77;;;1.00;;
28427;SDS011;15662;49.128;8.520;2023-04-27T17:25:51;4.72;;;1.15;;
28427;SDS011;15662;49.128;8.520;2023-04-27T17:28:20;1.58;;;1.25;;
28427;SDS011;15662;49.128;8.520;2023-04-27T17:30:51;1.80;;;1.00;;
28427;SDS011;15662;49.128;8.520;2023-04-27T17:33:19;1.10;;;0.90;;
28427;SDS011;15662;49.128;8.520;2023-04-27T17:35:48;1.80;;;1.05;;
28427;SDS011;15662;49.128;8.520;2023-04-27T17:38:17;1.25;;;0.80;;
28427;SDS011;15662;49.128;8.520;2023-04-27T17:40:45;2.38;;;1.20;;
28427;SDS011;15662;49.128;8.520;2023-04-27T17:43:15;1.38;;;0.90;;
28427;SDS011;15662;49.128;8.520;2023-04-27T17:45:44;1.73;;;1.10;;
28427;SDS011;15662;49.128;8.520;2023-04-27T17:55:02;2.15;;;1.65;;
28427;SDS011;15662;49.128;8.520;2023-04-27T18:00:37;2.15;;;1.80;;
28427;SDS011;15662;49.128;8.520;2023-04-27T18:04:03;1.85;;;1.70;;
28427;SDS011;15662;49.128;8.520;2023-04-27T18:31:28;1.67;;;1.30;;
28427;SDS011;15662;49.128;8.520;2023-04-27T18:42:00;3.38;;;1.90;;
28427;SDS011;15662;49.128;8.520;2023-04-27T18:45:06;1.30;;;1.30;;
28427;SDS011;15662;49.128;8.520;2023-04-27T18:51:33;1.90;;;1.65;;
28427;SDS011;15662;49.128;8.520;2023-04-27T19:04:15;2.50;;;1.90;;
28427;SDS011;15662;49.128;8.520;2023-04-27T19:06:47;3.83;;;2.25;;
28427;SDS011;15662;49.128;8.520;2023-04-27T19:09:17;3.70;;;2.57;;
28427;SDS011;15662;49.128;8.520;2023-04-27T19:12:07;3.47;;;1.80;;
28427;SDS011;15662;49.128;8.520;2023-04-27T19:21:46;1.33;;;1.23;;
28427;SDS011;15662;49.128;8.520;2023-04-27T19:46:01;3.45;;;1.60;;
28427;SDS011;15662;49.128;8.520;2023-04-27T19:52:21;4.68;;;1.85;;
28427;SDS011;15662;49.128;8.520;2023-04-27T19:54:52;1.70;;;1.40;;
28427;SDS011;15662;49.128;8.520;2023-04-27T19:57:22;3.05;;;1.73;;
28427;SDS011;15662;49.128;8.520;2023-04-27T19:59:53;2.15;;;1.38;;
28427;SDS011;15662;49.128;8.520;2023-04-27T20:02:22;4.93;;;1.85;;
28427;SDS011;15662;49.128;8.520;2023-04-27T20:04:57;1.88;;;1.70;;
28427;SDS011;15662;49.128;8.520;2023-04-27T20:07:25;4.35;;;1.77;;
28427;SDS011;15662;49.128;8.520;2023-04-27T20:09:54;2.67;;;1.70;;
28427;SDS011;15662;49.128;8.520;2023-04-27T20:12:24;1.70;;;1.47;;
28427;SDS011;15662;49.128;8.520;2023-04-27T20:15:12;2.20;;;1.60;;
28427;SDS011;15662;49.128;8.520;2023-04-27T20:17:41;2.55;;;1.77;;
28427;SDS011;15662;49.128;8.520;2023-04-27T20:20:12;2.90;;;1.70;;
28427;SDS011;15662;49.128;8.520;2023-04-27T20:22:42;3.17;;;2.30;;
28427;SDS011;15662;49.128;8.520;2023-04-27T20:25:12;2.60;;;1.95;;
28427;SDS011;15662;49.128;8.520;2023-04-27T20:27:41;2.17;;;2.00;;
28427;SDS011;15662;49.128;8.520;2023-04-27T20:30:09;2.92;;;2.40;;
28427;SDS011;15662;49.128;8.520;2023-04-27T20:32:40;3.92;;;2.30;;
28427;SDS011;15662;49.128;8.520;2023-04-27T20:35:11;2.13;;;2.03;;
28427;SDS011;15662;49.128;8.520;2023-04-27T20:37:40;3.70;;;2.10;;
28427;SDS011;15662;49.128;8.520;2023-04-27T20:40:10;2.83;;;2.20;;
28427;SDS011;15662;49.128;8.520;2023-04-27T20:42:43;2.95;;;2.00;;
28427;SDS011;15662;49.128;8.520;2023-04-27T20:45:12;2.33;;;1.73;;
28427;SDS011;15662;49.128;8.520;2023-04-27T20:47:40;2.67;;;1.73;;
28427;SDS011;15662;49.128;8.520;2023-04-27T20:50:11;3.40;;;1.73;;
28427;SDS011;15662;49.128;8.520;2023-04-27T20:52:39;2.75;;;1.67;;
28427;SDS011;15662;49.128;8.520;2023-04-27T20:55:09;3.17;;;1.90;;
28427;SDS011;15662;49.128;8.520;2023-04-27T20:57:46;2.60;;;1.73;;
28427;SDS011;15662;49.128;8.520;2023-04-27T21:00:15;2.45;;;1.80;;
28427;SDS011;15662;49.128;8.520;2023-04-27T21:02:45;2.42;;;2.20;;
28427;SDS011;15662;49.128;8.520;2023-04-27T21:05:15;3.53;;;1.98;;
28427;SDS011;15662;49.128;8.520;2023-04-27T21:10:15;2.90;;;2.60;;
28427;SDS011;15662;49.128;8.520;2023-04-27T21:12:44;3.33;;;2.17;;
28427;SDS011;15662;49.128;8.520;2023-04-27T21:15:12;2.50;;;2.30;;
28427;SDS011;15662;49.128;8.520;2023-04-27T21:17:41;3.58;;;2.17;;
28427;SDS011;15662;49.128;8.520;2023-04-27T21:20:09;2.38;;;1.90;;
28427;SDS011;15662;49.128;8.520;2023-04-27T21:22:39;2.80;;;2.22;;
28427;SDS011;15662;49.128;8.520;2023-04-27T21:25:08;4.80;;;2.85;;
28427;SDS011;15662;49.128;8.520;2023-04-27T21:27:37;3.25;;;2.28;;
28427;SDS011;15662;49.128;8.520;2023-04-27T21:30:07;4.30;;;2.22;;
28427;SDS011;15662;49.128;8.520;2023-04-27T21:32:37;2.22;;;2.10;;
28427;SDS011;15662;49.128;8.520;2023-04-27T21:35:06;2.85;;;2.53;;
28427;SDS011;15662;49.128;8.520;2023-04-27T21:38:10;2.58;;;2.20;;
28427;SDS011;15662;49.128;8.520;2023-04-27T21:41:43;2.40;;;2.20;;
28427;SDS011;15662;49.128;8.520;2023-04-27T21:44:30;2.63;;;2.42;;
28427;SDS011;15662;49.128;8.520;2023-04-27T21:46:59;2.50;;;2.30;;
28427;SDS011;15662;49.128;8.520;2023-04-27T21:49:27;5.45;;;2.40;;
28427;SDS011;15662;49.128;8.520;2023-04-27T21:51:55;3.30;;;2.47;;
28427;SDS011;15662;49.128;8.520;2023-04-27T21:54:24;2.30;;;2.20;;
28427;SDS011;15662;49.128;8.520;2023-04-27T21:56:58;3.95;;;2.35;;
28427;SDS011;15662;49.128;8.520;2023-04-27T21:59:30;3.10;;;2.38;;
28427;SDS011;15662;49.128;8.520;2023-04-27T22:02:00;4.70;;;2.90;;
28427;SDS011;15662;49.128;8.520;2023-04-27T22:04:33;3.50;;;2.78;;
28427;SDS011;15662;49.128;8.520;2023-04-27T22:07:06;5.25;;;3.10;;
28427;SDS011;15662;49.128;8.520;2023-04-27T22:09:35;5.93;;;3.33;;
28427;SDS011;15662;49.128;8.520;2023-04-27T22:12:04;4.60;;;3.30;;
28427;SDS011;15662;49.128;8.520;2023-04-27T22:14:33;5.90;;;3.58;;
28427;SDS011;15662;49.128;8.520;2023-04-27T22:17:01;3.97;;;3.00;;
28427;SDS011;15662;49.128;8.520;2023-04-27T22:19:30;3.15;;;2.80;;
28427;SDS011;15662;49.128;8.520;2023-04-27T22:21:58;3.70;;;2.80;;
28427;SDS011;15662;49.128;8.520;2023-04-27T22:24:27;3.58;;;2.63;;
28427;SDS011;15662;49.128;8.520;2023-04-27T22:27:01;4.88;;;2.50;;
28427;SDS011;15662;49.128;8.520;2023-04-27T22:29:47;3.40;;;3.10;;
28427;SDS011;15662;49.128;8.520;2023-04-27T22:32:31;5.10;;;3.55;;
28427;SDS011;15662;49.128;8.520;2023-04-27T22:35:00;5.07;;;3.42;;
28427;SDS011;15662;49.128;8.520;2023-04-27T22:37:29;4.47;;;3.30;;
28427;SDS011;15662;49.128;8.520;2023-04-27T22:39:58;7.13;;;3.67;;
28427;SDS011;15662;49.128;8.520;2023-04-27T22:42:26;4.00;;;3.17;;
28427;SDS011;15662;49.128;8.520;2023-04-27T22:44:54;3.45;;;3.03;;
28427;SDS011;15662;49.128;8.520;2023-04-27T22:47:22;3.15;;;2.85;;
28427;SDS011;15662;49.128;8.520;2023-04-27T22:49:52;7.15;;;2.90;;
28427;SDS011;15662;49.128;8.520;2023-04-27T22:52:21;3.90;;;2.60;;
28427;SDS011;15662;49.128;8.520;2023-04-27T22:54:51;3.60;;;3.03;;
28427;SDS011;15662;49.128;8.520;2023-04-27T22:57:21;4.78;;;2.80;;
28427;SDS011;15662;49.128;8.520;2023-04-27T22:59:50;3.20;;;2.70;;
28427;SDS011;15662;49.128;8.520;2023-04-27T23:02:18;5.53;;;3.00;;
28427;SDS011;15662;49.128;8.520;2023-04-27T23:04:46;4.88;;;3.40;;
28427;SDS011;15662;49.128;8.520;2023-04-27T23:07:15;5.80;;;3.03;;
28427;SDS011;15662;49.128;8.520;2023-04-27T23:09:44;3.28;;;2.97;;
28427;SDS011;15662;49.128;8.520;2023-04-27T23:12:14;3.25;;;2.70;;
28427;SDS011;15662;49.128;8.520;2023-04-27T23:14:45;3.30;;;2.80;;
28427;SDS011;15662;49.128;8.520;2023-04-27T23:17:13;3.25;;;2.95;;
28427;SDS011;15662;49.128;8.520;2023-04-27T23:19:43;3.40;;;3.10;;
28427;SDS011;15662;49.128;8.520;2023-04-27T23:22:12;5.82;;;3.13;;
28427;SDS011;15662;49.128;8.520;2023-04-27T23:24:40;3.67;;;3.00;;
28427;SDS011;15662;49.128;8.520;2023-04-27T23:27:09;5.05;;;3.33;;
28427;SDS011;15662;49.128;8.520;2023-04-27T23:29:38;3.00;;;2.70;;
28427;SDS011;15662;49.128;8.520;2023-04-27T23:32:06;3.13;;;2.78;;
28427;SDS011;15662;49.128;8.520;2023-04-27T23:34:35;5.03;;;2.78;;
28427;SDS011;15662;49.128;8.520;2023-04-27T23:37:07;3.58;;;2.53;;
28427;SDS011;15662;49.128;8.520;2023-04-27T23:39:36;3.80;;;2.83;;
28427;SDS011;15662;49.128;8.520;2023-04-27T23:42:05;4.18;;;2.92;;
28427;SDS011;15662;49.128;8.520;2023-04-27T23:44:33;4.85;;;2.88;;
28427;SDS011;15662;49.128;8.520;2023-04-27T23:47:01;3.17;;;2.60;;
28427;SDS011;15662;49.128;8.520;2023-04-27T23:49:32;7.10;;;3.03;;
28427;SDS011;15662;49.128;8.520;2023-04-27T23:52:03;6.03;;;3.00;;
28427;SDS011;15662;49.128;8.520;2023-04-27T23:54:32;4.13;;;2.72;;
28427;SDS011;15662;49.128;8.520;2023-04-27T23:57:01;3.28;;;2.97;;
28427;SDS011;15662;49.128;8.520;2023-04-27T23:59:33;4.15;;;2.58;;
